Airfield :
LOGIN :

Register | Disclaimer

   EN    FR    IT 

 










Legend :    VFR   Marginal VFR   IFR   Intensive IFR   Very Intensive IFR
Visi :
Ceiling :
>= 8 km
>= 3000ft
5 to 8 km
1000 to 3000 ft
1500m to 5 km
500 to 1000 ft
800 to 1500m
200 to 500 ft
< 800m
< 200 ft
Symbols :   Thunderstorms  Fog  Heavy snow  Heavy precipitations  Wind > 20 kt
SIGMETs :     Misc.  Thunderstorms  Icing  Turbulence  Mountain Waves  Volcanic Ashes






- Airport Elevation : 291 ft
- IATA code : ORY


LFPO - Paris-Orly

CURRENT METAR :
  • 181330Z 02008KT 350V070 CAVOK 12/02 Q1023 NOSIG

EXPIRED METARs :
  • 181300Z 02007KT 320V060 9999 BKN046 11/02 Q1023 NOSIG
  • 181230Z 03009KT 340V060 9999 BKN043 11/02 Q1023 NOSIG
  • 181200Z 02008KT 350V070 9999 BKN036 11/03 Q1022 NOSIG
  • 181130Z 02008KT 340V060 9999 BKN035 11/04 Q1022 NOSIG
  • 181100Z 03008KT 350V070 9999 BKN030 09/03 Q1022 NOSIG
  • 181030Z 04009KT 020V080 9999 BKN029 09/03 Q1022 NOSIG
  • 181000Z 36009KT 330V050 9999 BKN026 09/04 Q1022 NOSIG
  • 180930Z 04009KT 9999 BKN023 07/03 Q1022 NOSIG
  • 180900Z 01008KT 340V050 9999 BKN022 07/03 Q1021 NOSIG

TAF TAF LFPO
Valid from the 18 at 12:00 until the 19 at 18:00 UTC


181100Z 1812/1918 01010KT 9999 BKN030
BECMG 1815/1818 30005KT CAVOK
BECMG 1902/1904 24010KT
PROB30
TEMPO 1903/1905 -RA SCT030 BKN050
BECMG 1907/1909 BKN020
PROB40
TEMPO 1909/1912 27015G25KT -RADZ BKN013
PROB40
TEMPO 1914/1917 4000 -SHRA
ATIS : +33 1 49 75 65 80



MET'MAP, your aeronautical weather chart ! - Copyright ORBIFLY December 2007 - Disclaimer

ORBIFLY MET'MAP TEAM :

Programming & Development : Alexandra Zaïnal
Original concept : Baudouin d'Aumeries
Technical & hardware support : Manuel Goepfert
Assistance : Marc-Olivier Méhu




SOURCES & CREDITS :

   NOAA